Tiempo atmosférico en la estación meteorológica de Bañobárez, Salamanca (748 m.)



Fecha
DESCASC
Temp. máxima en grados centígrados (hora)
DESCASC
Temp. mínima en grados centígrados (hora)
DESCASC
Temp. media en grados centígrados
DESCASC
Racha de viento máxima en m/sg (hora)
DESCASC
Velocidad máxima media en intervalos de 10 minutos(hora)
DESCASC
Precipitaciones diarias en mm
DESCASC
Precipitaciones de 00:00 a 06:00 en mm
DESCASC
Precipitaciones de 06:00 a 12:00 en mm
DESCASC
Precipitaciones de 12:00 a 18:00 en mm
DESCASC
Precipitaciones de 18:00 a 24:00 en mm
DESCASC
24-09-2020 19.1 (16:50) 11.2 (23:59) 15.2 13.33 (17:00) 8.33 (17:30) 0 0 0 0 0
23-09-2020 19.2 (18:40) 13.8 (00:00) 16.5 9.72 (14:20) 5.28 (14:30) 6 0 1 5 0
22-09-2020 22 (17:10) 9.3 (00:00) 15.7 8.06 (17:20) 5 (17:00) 0 0 0 0 0
21-09-2020 21.1 (17:50) 8.5 (00:00) 14.8 7.22 (18:00) 4.17 (17:50) 0 0 0 0 0
20-09-2020 20.9 (17:40) 13.3 (00:00) 17.1 11.39 (14:10) 6.94 (14:10) 6.4 3.8 2.6 0 0
19-09-2020 18.2 (15:30) 13.7 (00:00) 16 14.17 (04:30) 8.61 (04:30) 15 8.4 0.2 1.8 4.6
18-09-2020 21.1 (16:10) 11.8 (00:00) 16.5 12.78 (16:30) 6.94 (16:30) 3.4 0 0 0 3.4
17-09-2020 24.7 (15:40) 14.4 (00:00) 19.6 11.67 (16:40) 6.67 (17:30) 10.2 0 0 0 10.2
16-09-2020 27.5 (16:40) 11 (05:50) 19.3 7.22 (15:40) 3.89 (14:00) 0 0 0 0 0
15-09-2020 26.4 (17:00) 11 (00:00) 18.7 9.72 (15:10) 5.83 (16:30) 0 0 0 0 0
14-09-2020 28.4 (17:40) 17.4 (00:00) 22.9 11.94 (12:20) 6.94 (12:10) 0 0 0 0 0
13-09-2020 31.4 (14:30) 16 (00:00) 23.7 10.28 (15:30) 6.39 (15:20) 0 0 0 0 0
12-09-2020 32.1 (17:00) 15.6 (08:30) 23.8 9.44 (13:40) 5.28 (09:40) 0 0 0 0 0
11-09-2020 30.4 (16:20) 11.5 (00:00) 20.9 8.33 (10:00) 5.56 (10:10) 0 0 0 0 0
10-09-2020 29.6 (16:50) 11.4 (00:00) 20.5 6.39 (10:10) 4.17 (10:00) 0 0 0 0 0
09-09-2020 28.6 (17:30) 8.9 (08:10) 18.8 5.83 (15:30) 3.33 (14:10) 0 0 0 0 0
08-09-2020 26.1 (18:40) 8.5 (00:00) 17.3 9.72 (13:50) 5.28 (09:50) 0 0 0 0 0
07-09-2020 24.6 (18:00) 12.2 (07:40) 18.4 13.61 (09:40) 8.06 (09:40) 0 0 0 0 0
06-09-2020 30.7 (18:00) 13.6 (00:00) 22.2 7.5 (05:40) 4.44 (11:10) 0 0 0 0 0
05-09-2020 32.6 (17:30) 13 (00:00) 22.8 7.22 (23:20) 4.17 (23:20) 0 0 0 0 0
04-09-2020 33 (16:50) 12.6 (00:00) 22.8 7.78 (12:50) 4.72 (12:50) 0 0 0 0 0
03-09-2020 31.4 (18:00) 13.8 (00:00) 22.6 6.11 (12:30) 3.89 (04:40) 0 0 0 0 0
02-09-2020 28.5 (18:10) 10.4 (00:00) 19.4 7.5 (14:00) 4.17 (04:50) 0 0 0 0 0
01-09-2020 26.5 (18:50) 10.4 (00:00) 18.4 7.5 (16:30) 3.33 (16:40) 0 0 0 0 0
31-08-2020 25.4 (17:40) 7.5 (00:00) 16.4 7.78 (14:10) 4.17 (16:30) 0 0 0 0 0
30-08-2020 20.9 (17:20) 8 (00:00) 14.4 8.89 (11:30) 5.56 (10:40) 0 0 0 0 0
29-08-2020 21.4 (17:00) 7.7 (00:00) 14.5 10.83 (16:40) 6.11 (10:50) 0 0 0 0 0
28-08-2020 24.8 (17:40) 14.3 (00:00) 19.5 11.11 (15:20) 7.22 (15:50) 0 0 0 0 0
27-08-2020 31.7 (17:10) 15.5 (00:00) 23.6 8.89 (18:10) 5.56 (19:20) 0 0 0 0 0
26-08-2020 33.1 (17:50) 12.6 (00:00) 22.8 6.67 (16:00) 4.17 (17:20) 0 0 0 0 0

Gráficas

Temp. máximas Temp. mínimas Temp. medias Precipitaciones Rachas de viento máximas Velocidades máximas media en intervalos de 10 minutos

Datos horarios

Fecha y hora oficial Temperatura (ºC) Velocidad del viento (km/h) Dirección del viento Racha (km/h) Dirección de racha Precipitación (mm) Presión (hPa) Tendencia (hPa) Humedad (%)
2020-09-24 23:00:00 12 9 Oeste 24 Oeste 0 -- -- 76
2020-09-24 22:00:00 12.6 13 Oeste 28 Oeste 0 -- -- 72
2020-09-24 21:00:00 13.9 12 Oeste 23 Noroeste 0 -- -- 68
2020-09-24 20:00:00 15.2 14 Oeste 33 Oeste 0 -- -- 59
2020-09-24 19:00:00 16.7 22 Noroeste 37 Noroeste 0 -- -- 52
2020-09-24 18:00:00 18.2 23 Oeste 45 Oeste 0 -- -- 48
2020-09-24 17:00:00 18.8 30 Oeste 48 Oeste 0 -- -- 46
2020-09-24 16:00:00 18.5 21 Noroeste 37 Noroeste 0 -- -- 61
2020-09-24 15:00:00 18.9 22 Oeste 34 Oeste 0 -- -- 60
2020-09-24 14:00:00 16.7 18 Oeste 35 Oeste 0 -- -- 70
2020-09-24 13:00:00 16.4 20 Oeste 31 Oeste 0 -- -- 72
2020-09-24 12:00:00 15.3 14 Oeste 22 Oeste 0 -- -- 79
2020-09-24 11:00:00 13.7 14 Oeste 23 Oeste 0 -- -- 84
2020-09-24 10:00:00 12.8 11 Oeste 15 Oeste 0 -- -- 90
2020-09-24 09:00:00 12.2 5 Oeste 11 Sudoeste 0 -- -- 94
2020-09-24 08:00:00 12.5 5 Oeste 18 Oeste 0 -- -- 94
2020-09-24 07:00:00 13.2 10 Oeste 16 Oeste 0 -- -- 94
2020-09-24 06:00:00 13.4 5 Oeste 15 Sudoeste 0 -- -- 94
2020-09-24 05:00:00 13.7 13 Oeste 22 Oeste 0 -- -- 94
2020-09-24 04:00:00 14.2 10 Oeste 19 Oeste 0 -- -- 93
2020-09-24 03:00:00 14.3 14 Oeste 22 Oeste 0 -- -- 91
2020-09-24 02:00:00 14.3 9 Noroeste 17 Oeste 0 -- -- 92
2020-09-24 01:00:00 14.4 5 Sudoeste 17 Oeste 0 -- -- 90
2020-09-24 00:00:00 14.8 6 Oeste 17 Sudoeste 0 -- -- 89
2020-09-23 23:00:00 14.9 8 Oeste 14 Oeste 0 -- -- 90
2020-09-23 22:00:00 14.1 0 Calma 10 Oeste 0 -- -- 90
2020-09-23 21:00:00 16.1 7 Oeste 22 Sudoeste 0 -- -- 86
2020-09-23 20:00:00 17.5 13 Oeste 27 Oeste 0 -- -- 80
2020-09-23 19:00:00 18.8 16 Oeste 27 Oeste 0 -- -- 75
2020-09-23 18:00:00 18.6 13 Oeste 27 Oeste 0 -- -- 78
2020-09-23 17:00:00 17.8 13 Oeste 22 Oeste 0 -- -- 85
2020-09-23 16:00:00 16.6 11 Oeste 30 Oeste 2.6 -- -- 92
2020-09-23 15:00:00 17.4 18 Oeste 35 Oeste 1.8 -- -- 89
2020-09-23 14:00:00 18.8 14 Sudoeste 28 Sudoeste 0.2 -- -- 77
2020-09-23 13:00:00 16.8 8 Sudoeste 21 Sudoeste 0.4 -- -- 88
2020-09-23 12:00:00 15.7 12 Sudoeste 21 Sudoeste 0 -- -- 91
2020-09-23 11:00:00 14.7 9 Sur 16 Sudoeste 1 -- -- 93
2020-09-23 10:00:00 14.7 10 Sudoeste 20 Sudoeste 0 -- -- 88
2020-09-23 09:00:00 14.2 8 Sur 13 Sur 0 -- -- 91
2020-09-23 08:00:00 14 7 Sur 13 Sudoeste 0 -- -- 88
2020-09-23 07:00:00 14.8 9 Sudoeste 15 Oeste 0 -- -- 84
2020-09-23 06:00:00 14.9 9 Oeste 15 Oeste 0 -- -- 85
2020-09-23 05:00:00 14.9 6 Oeste 13 Sudoeste 0 -- -- 87
2020-09-23 04:00:00 15.1 7 Oeste 17 Oeste 0 -- -- 87
2020-09-23 03:00:00 15.5 7 Oeste 16 Oeste 0 -- -- 83
2020-09-23 02:00:00 16.1 6 Oeste 16 Oeste 0 -- -- 85
2020-09-23 01:00:00 15.6 3 Sudoeste 5 Sudoeste 0 -- -- 85
2020-09-23 00:00:00 15.7 4 Sudeste 15 Oeste 0 -- -- 80
2020-09-22 23:00:00 17.1 12 Oeste 19 Oeste 0 -- -- 73
2020-09-22 22:00:00 18.1 10 Oeste 17 Oeste 0 -- -- 68
2020-09-22 21:00:00 18.4 9 Oeste 22 Oeste 0 -- -- 62
2020-09-22 20:00:00 20.1 11 Noroeste 22 Oeste 0 -- -- 58
2020-09-22 19:00:00 21.1 12 Oeste 26 Oeste 0 -- -- 55
2020-09-22 18:00:00 21.4 13 Oeste 29 Oeste 0 -- -- 53
2020-09-22 17:00:00 21.8 18 Oeste 27 Oeste 0 -- -- 53
2020-09-22 16:00:00 21.4 15 Oeste 23 Oeste 0 -- -- 53
2020-09-22 15:00:00 20.2 10 Oeste 24 Oeste 0 -- -- 55
2020-09-22 14:00:00 19.1 7 Noroeste 19 Oeste 0 -- -- 57
2020-09-22 13:00:00 17.7 10 Oeste 19 Noroeste 0 -- -- 62
2020-09-22 12:00:00 15.7 8 Oeste 15 Oeste 0 -- -- 76
2020-09-22 11:00:00 14 7 Sudoeste 11 Sudoeste 0 -- -- 85
2020-09-22 10:00:00 12.5 5 Sudoeste 11 Sur 0 -- -- 97
2020-09-22 09:00:00 9.8 7 Sur 11 Sur 0 -- -- 96
2020-09-22 08:00:00 9.9 3 Sur 9 Sur 0 -- -- 95
2020-09-22 07:00:00 9.7 4 Sur 8 Sur 0 -- -- 95
2020-09-22 06:00:00 9.9 4 Sur 9 Sur 0 -- -- 94
2020-09-22 05:00:00 10.6 7 Sur 10 Sur 0 -- -- 94
2020-09-22 04:00:00 11.3 3 Sur 10 Sudoeste 0 -- -- 90
2020-09-22 03:00:00 11.4 6 Sur 10 Oeste 0 -- -- 92
2020-09-22 02:00:00 12.6 6 Oeste 10 Oeste 0 -- -- 90
2020-09-22 01:00:00 13.1 4 Oeste 16 Oeste 0 -- -- 86
2020-09-22 00:00:00 13.9 9 Oeste 15 Oeste 0 -- -- 79
2020-09-21 23:00:00 13.9 4 Oeste 11 Oeste 0 -- -- 76
2020-09-21 22:00:00 14.8 6 Oeste 10 Oeste 0 -- -- 73
2020-09-21 21:00:00 16.7 5 Oeste 10 Oeste 0 -- -- 66
2020-09-21 20:00:00 18.4 7 Oeste 22 Oeste 0 -- -- 58
2020-09-21 19:00:00 20.4 13 Oeste 23 Noroeste 0 -- -- 51
2020-09-21 18:00:00 21.1 14 Oeste 26 Oeste 0 -- -- 47
2020-09-21 17:00:00 19.7 9 Noroeste 22 Oeste 0 -- -- 49
2020-09-21 16:00:00 19.6 12 Noroeste 21 Noroeste 0 -- -- 48
2020-09-21 15:00:00 19.4 11 Noroeste 22 Noroeste 0 -- -- 49
2020-09-21 14:00:00 18.3 11 Noroeste 19 Noroeste 0 -- -- 52
2020-09-21 13:00:00 17.3 6 Noroeste 16 Oeste 0 -- -- 60
2020-09-21 12:00:00 16 6 Oeste 14 Sudoeste 0 -- -- 68
2020-09-21 11:00:00 14.3 8 Oeste 14 Oeste 0 -- -- 82
2020-09-21 10:00:00 12.5 4 Oeste 8 Oeste 0 -- -- 93
2020-09-21 09:00:00 9.4 2 Sur 10 Sur 0 -- -- 96
2020-09-21 08:00:00 8.6 5 Sur 7 Sur 0 -- -- 94
2020-09-21 07:00:00 8.9 3 Sudoeste 9 Sur 0 -- -- 92
2020-09-21 06:00:00 9.9 6 Sur 9 Sur 0 -- -- 93
2020-09-21 05:00:00 9.9 5 Sur 9 Sur 0 -- -- 92
2020-09-21 04:00:00 10.5 5 Sur 12 Sudoeste 0 -- -- 91
2020-09-21 03:00:00 9.8 4 Sur 6 Sudoeste 0 -- -- 91
2020-09-21 02:00:00 11.7 0 Calma 15 Oeste 0 -- -- 84
2020-09-21 01:00:00 11.9 5 Noroeste 13 Noroeste 0 -- -- 85
2020-09-21 00:00:00 13.4 12 Noroeste 18 Noroeste 0 -- -- 80
2020-09-20 23:00:00 13.8 10 Noroeste 16 Oeste 0 -- -- 78
2020-09-20 22:00:00 15.1 8 Noroeste 16 Oeste 0 -- -- 74
2020-09-20 21:00:00 17.1 9 Oeste 21 Noroeste 0 -- -- 71
2020-09-20 20:00:00 18.3 8 Noroeste 23 Oeste 0 -- -- 63
2020-09-20 19:00:00 19.8 15 Oeste 33 Oeste 0 -- -- 57
2020-09-20 18:00:00 20.8 21 Oeste 35 Oeste 0 -- -- 58
2020-09-20 17:00:00 20.8 22 Oeste 38 Oeste 0 -- -- 61
2020-09-20 16:00:00 20.3 23 Oeste 39 Oeste 0 -- -- 63
2020-09-20 15:00:00 20 19 Oeste 41 Oeste 0 -- -- 68
2020-09-20 14:00:00 18.6 21 Oeste 33 Oeste 0 -- -- 78
2020-09-20 13:00:00 17.6 20 Oeste 31 Sudoeste 0 -- -- 87
2020-09-20 12:00:00 16.5 14 Sudoeste 26 Sudoeste 0 -- -- 93
2020-09-20 11:00:00 15.1 13 Sudoeste 24 Sudoeste 1 -- -- 96
2020-09-20 10:00:00 14.5 11 Sudoeste 19 Sur 1 -- -- 96
2020-09-20 09:00:00 14.2 9 Sur 22 Sur 0.2 -- -- 96
2020-09-20 08:00:00 13.7 8 Sur 16 Sudoeste 0 -- -- 96
2020-09-20 07:00:00 14.2 6 Sur 17 Oeste 0.4 -- -- 96
2020-09-20 06:00:00 14.5 8 Oeste 22 Sudoeste 0.8 -- -- 96
2020-09-20 05:00:00 14.8 5 Sudoeste 19 Sur 0.6 -- -- 96
2020-09-20 04:00:00 14.7 9 Sur 17 Sur -- -- -- 96
2020-09-20 03:00:00 14.7 10 Sur 19 Sur 0.6 -- -- 96
2020-09-20 02:00:00 14.9 9 Sur 18 Sur 0.2 -- -- 96
2020-09-20 01:00:00 14.9 12 Sur 22 Sur 1 -- -- 96
2020-09-20 00:00:00 15 7 Sur 13 Sur 0.4 -- -- 96
2020-09-19 23:00:00 15.1 4 Sur 10 Sur 1.2 -- -- 96
2020-09-19 22:00:00 15 5 Sur 12 Sudoeste 0.2 -- -- 95
2020-09-19 21:00:00 15 6 Sudoeste 18 Sudoeste 0.6 -- -- 95
2020-09-19 20:00:00 15 13 Sudoeste 21 Sudoeste 1 -- -- 95
2020-09-19 19:00:00 14.9 9 Sur 15 Sur 1.2 -- -- 94
2020-09-19 18:00:00 14.9 9 Sur 26 Sur 1.4 -- -- 93
2020-09-19 17:00:00 15.5 15 Sudoeste 31 Sudoeste 0.4 -- -- 88
2020-09-19 16:00:00 17.5 22 Sudoeste 34 Sudoeste 0 -- -- 67
2020-09-19 15:00:00 17.1 13 Sudoeste 26 Sudoeste 0 -- -- 72
2020-09-19 14:00:00 17.1 15 Sudoeste 32 Oeste 0 -- -- 73
2020-09-19 13:00:00 16 19 Sudoeste 30 Sudoeste 0 -- -- 82
2020-09-19 12:00:00 15.5 15 Oeste 30 Oeste 0 -- -- 86
2020-09-19 11:00:00 15.1 15 Oeste 28 Sudoeste 0 -- -- 91
2020-09-19 10:00:00 14.2 15 Oeste 31 Oeste 0 -- -- 93
2020-09-19 09:00:00 14 14 Oeste 28 Oeste 0 -- -- 95
2020-09-19 08:00:00 13.9 19 Sudoeste 37 Sudoeste 0 -- -- 95
2020-09-19 07:00:00 13.8 18 Oeste 41 Sudoeste 0.2 -- -- 95
2020-09-19 06:00:00 13.9 22 Sudoeste 42 Sudoeste 1.8 -- -- 95
2020-09-19 05:00:00 14.1 25 Oeste 51 Sudoeste 0.8 -- -- 95
2020-09-19 04:00:00 14.3 24 Sur 44 Sur 2.8 -- -- 94
2020-09-19 03:00:00 14.3 21 Sur 35 Sudeste 0.4 -- -- 92
2020-09-19 02:00:00 14.3 13 Sur 27 Sur 0 -- -- 90
2020-09-19 01:00:00 14.3 11 Sudeste 23 Sur 2.6 -- -- 93
2020-09-19 00:00:00 14.5 12 Sudeste 28 Sudeste 0 -- -- 90
2020-09-18 23:00:00 14.3 12 Sudeste 21 Sudeste 0 -- -- 88
2020-09-18 22:00:00 14.4 12 Sudeste 22 Sudeste 0.6 -- -- 89
2020-09-18 21:00:00 14.8 15 Sudeste 33 Sudeste 2.8 -- -- 87
2020-09-18 20:00:00 17.5 15 Sudeste 33 Sudeste 0 -- -- 66
2020-09-18 19:00:00 18.3 21 Sudeste 41 Sudeste 0 -- -- 62
2020-09-18 18:00:00 18.1 20 Sur 37 Este 0 -- -- 67
2020-09-18 17:00:00 17.4 18 Sudeste 46 Sudeste 0 -- -- 74
2020-09-18 16:00:00 20.1 15 Sur 36 Sur 0 -- -- 58
2020-09-18 15:00:00 19.6 17 Sur 33 Sur 0 -- -- 58
2020-09-18 14:00:00 19.7 15 Sur 30 Sudeste 0 -- -- 58
2020-09-18 13:00:00 19.1 16 Sudeste 29 Sudeste 0 -- -- 63
2020-09-18 12:00:00 17.2 14 Sur 31 Sur 0 -- -- 70
2020-09-18 11:00:00 16.2 18 Sur 30 Sur 0 -- -- 80
2020-09-18 10:00:00 15 10 Sur 18 Sur 0 -- -- 89
2020-09-18 09:00:00 13.4 6 Sur 13 Sur 0 -- -- 96
2020-09-18 08:00:00 11.9 5 Sudeste 8 Sur 0 -- -- 95
2020-09-18 07:00:00 12.4 4 Sur 7 Sur 0 -- -- 95
2020-09-18 06:00:00 12.8 2 Sudeste 5 Sur 0 -- -- 94
2020-09-18 05:00:00 13.3 4 Sudoeste 9 Sur 0 -- -- 93
2020-09-18 04:00:00 14.2 6 Sur 13 Sur 0 -- -- 93
2020-09-18 03:00:00 14.5 7 Sudeste 12 Sudeste 0 -- -- 93
2020-09-18 02:00:00 14.5 5 Sudeste 14 Este 0 -- -- 93
2020-09-18 01:00:00 14.8 12 Sudeste 19 Sudeste 0 -- -- 92
2020-09-18 00:00:00 14.4 4 Sudeste 8 Sudoeste 0 -- -- 90
2020-09-17 23:00:00 15.1 4 Sudoeste 24 Oeste 0.6 -- -- 91
2020-09-17 22:00:00 15.9 23 Sudoeste 39 Sudoeste 9.6 -- -- 89
2020-09-17 21:00:00 18.1 8 Sur 23 Sur 0 -- -- 80
2020-09-17 20:00:00 19.5 13 Sur 24 Sudeste 0 -- -- 72
2020-09-17 19:00:00 20.3 14 Sur 26 Sur 0 -- -- 70
2020-09-17 18:00:00 20.6 17 Sur 37 Sur 0 -- -- 72
2020-09-17 17:00:00 22.4 18 Sur 42 Sudeste 0 -- -- 60
2020-09-17 16:00:00 23.9 21 Sur 37 Sur 0 -- -- 52
2020-09-17 15:00:00 24.4 21 Sudeste 35 Sur 0 -- -- 47
2020-09-17 14:00:00 23.3 13 Sur 28 Sur 0 -- -- 51
2020-09-17 13:00:00 22.1 16 Sudeste 33 Sudeste 0 -- -- 56
2020-09-17 12:00:00 21.9 13 Sudeste 28 Sur 0 -- -- 57
2020-09-17 11:00:00 21.1 17 Sur 32 Sur 0 -- -- 60
2020-09-17 10:00:00 20.1 10 Sur 18 Sur 0 -- -- 63
2020-09-17 09:00:00 18.9 8 Sur 21 Sudeste 0 -- -- 63
2020-09-17 08:00:00 19.6 10 Sur 22 Sur 0 -- -- 60
2020-09-17 07:00:00 19.7 9 Sur 22 Sur 0 -- -- 58
2020-09-17 06:00:00 19.4 11 Sur 19 Sur 0 -- -- 59
2020-09-17 05:00:00 17.1 6 Este 13 Sur 0 -- -- 59
2020-09-17 04:00:00 16.2 5 Sudeste 6 Sudeste 0 -- -- 63
2020-09-17 03:00:00 17.2 3 Sur 6 Sur 0 -- -- 62
2020-09-17 02:00:00 17 4 Este 8 Sudoeste 0 -- -- 66
2020-09-17 01:00:00 18.6 6 Sur 18 Sudeste 0 -- -- 59
2020-09-17 00:00:00 17.1 2 Sudeste 8 Nordeste 0 -- -- 64
2020-09-16 23:00:00 16.8 0 Calma 3 Nordeste 0 -- -- 63
2020-09-16 22:00:00 18.4 0 Calma 2 Sudeste 0 -- -- 59
2020-09-16 21:00:00 23.1 2 Sudoeste 9 Sudoeste 0 -- -- 47
2020-09-16 20:00:00 24.9 5 Sudoeste 15 Sur 0 -- -- 40
2020-09-16 19:00:00 26.1 6 Sur 20 Sur 0 -- -- 35
2020-09-16 18:00:00 26.9 9 Sur 21 Sur 0 -- -- 36
2020-09-16 17:00:00 27.3 9 Sudeste 24 Sudeste 0 -- -- 33
2020-09-16 16:00:00 27.3 9 Sur 26 Sudeste 0 -- -- 32
2020-09-16 15:00:00 26.6 8 Este 22 Sudoeste 0 -- -- 36
2020-09-16 14:00:00 26.2 14 Sur 24 Sudeste 0 -- -- 38
2020-09-16 13:00:00 25.1 11 Sur 24 Este 0 -- -- 41
2020-09-16 12:00:00 23.8 10 Sudeste 20 Este 0 -- -- 44
2020-09-16 11:00:00 22.4 12 Este 19 Sudeste 0 -- -- 47
2020-09-16 10:00:00 17.8 12 Sudeste 18 Este 0 -- -- 63
2020-09-16 09:00:00 13.9 13 Este 17 Este 0 -- -- 76
2020-09-16 08:00:00 11.7 9 Este 13 Este 0 -- -- 83
2020-09-16 07:00:00 11.4 6 Sudeste 10 Sudeste 0 -- -- 86
2020-09-16 06:00:00 11 8 Sudeste 11 Sudeste 0 -- -- 89
2020-09-16 05:00:00 12 3 Sudeste 5 Sur 0 -- -- 89
2020-09-16 04:00:00 12 2 Sur 7 Sur 0 -- -- 84
2020-09-16 03:00:00 13.5 5 Sur 7 Sur 0 -- -- 78
2020-09-16 02:00:00 14.2 6 Sur 11 Sur 0 -- -- 70
2020-09-16 01:00:00 13.2 2 Sur 5 Oeste 0 -- -- 73
2020-09-16 00:00:00 14.7 4 Sudeste 5 Sudeste 0 -- -- 68
2020-09-15 23:00:00 15.7 0 Calma 6 Sudoeste 0 -- -- 63
2020-09-15 22:00:00 17.5 3 Sur 8 Sur 0 -- -- 56
2020-09-15 21:00:00 21.8 7 Sur 20 Sudoeste 0 -- -- 46
2020-09-15 20:00:00 24.3 12 Sur 23 Sur 0 -- -- 41
2020-09-15 19:00:00 25.5 15 Sur 30 Sur 0 -- -- 38
2020-09-15 18:00:00 26.1 17 Sur 32 Sudoeste 0 -- -- 37
2020-09-15 17:00:00 26.4 16 Sudoeste 33 Sur 0 -- -- 36
2020-09-15 16:00:00 26.1 20 Sudoeste 35 Sudoeste 0 -- -- 36
2020-09-15 15:00:00 26 17 Sudoeste 31 Sudoeste 0 -- -- 37
2020-09-15 14:00:00 25.1 14 Sur 31 Sudoeste 0 -- -- 40
2020-09-15 13:00:00 23.3 17 Sudoeste 32 Sur 0 -- -- 47
2020-09-15 12:00:00 22.2 16 Sudoeste 24 Sudoeste 0 -- -- 51
2020-09-15 11:00:00 20.2 9 Sudeste 14 Sudeste 0 -- -- 66
2020-09-15 10:00:00 17 5 Sudeste 8 Sudeste 0 -- -- 78
2020-09-15 09:00:00 12.4 4 Sudeste 6 Sudeste 0 -- -- 93
2020-09-15 08:00:00 11.1 2 Sur 4 Sudeste 0 -- -- 92
2020-09-15 07:00:00 11.5 5 Sudeste 7 Este 0 -- -- 91
2020-09-15 06:00:00 11.7 2 Sur 4 Sudeste 0 -- -- 89
2020-09-15 05:00:00 13.2 2 Sudoeste 7 Oeste 0 -- -- 84
2020-09-15 04:00:00 15.4 5 Oeste 14 Sudoeste 0 -- -- 81
2020-09-15 03:00:00 16.4 8 Oeste 13 Oeste 0 -- -- 80
2020-09-15 02:00:00 17 10 Oeste 14 Oeste 0 -- -- 80
2020-09-15 01:00:00 18 5 Oeste 20 Oeste 0 -- -- 77
2020-09-15 00:00:00 19 11 Oeste 17 Oeste 0 -- -- 74
2020-09-14 23:00:00 19.6 8 Oeste 15 Oeste 0 -- -- 68
2020-09-14 22:00:00 20.7 8 Noroeste 12 Oeste 0 -- -- 62
2020-09-14 21:00:00 23.6 7 Sudoeste 21 Sudoeste 0 -- -- 46
2020-09-14 20:00:00 25.4 14 Sudoeste 32 Sudoeste 0 -- -- 42
2020-09-14 19:00:00 26.8 18 Sudoeste 40 Sudoeste 0 -- -- 38
2020-09-14 18:00:00 27.8 21 Sudoeste 43 Sudoeste 0 -- -- 36
2020-09-14 17:00:00 28 18 Sur 34 Sur 0 -- -- 38
2020-09-14 16:00:00 26.5 22 Sur 39 Sur 0 -- -- 42
2020-09-14 15:00:00 26.1 21 Sur 36 Sudoeste 0 -- -- 43
2020-09-14 14:00:00 26.8 20 Sur 40 Sur 0 -- -- 44
2020-09-14 13:00:00 25.9 21 Sur 43 Sur 0 -- -- 47
2020-09-14 12:00:00 24.4 23 Sur 40 Sur 0 -- -- 52
2020-09-14 11:00:00 22.2 12 Sur 21 Sur 0 -- -- 61
2020-09-14 10:00:00 19.8 6 Sur 13 Sur 0 -- -- 68
2020-09-14 09:00:00 18.8 4 Sur 10 Sur 0 -- -- 70
2020-09-14 08:00:00 19.5 4 Sur 12 Sur 0 -- -- 67
2020-09-14 07:00:00 20 7 Sur 15 Sur 0 -- -- 65
2020-09-14 06:00:00 20 9 Sur 17 Sudoeste 0 -- -- 65
2020-09-14 05:00:00 18.9 6 Sur 12 Sur 0 -- -- 62
2020-09-14 04:00:00 18 7 Sur 11 Sudoeste 0 -- -- 61
2020-09-14 03:00:00 18.9 3 Oeste 12 Sur 0 -- -- 59
2020-09-14 02:00:00 20.6 7 Sur 13 Sur 0 -- -- 47
2020-09-14 01:00:00 19.9 2 Sudeste 20 Sudoeste 0 -- -- 47
2020-09-14 00:00:00 21 9 Este 13 Este 0 -- -- 44
2020-09-13 23:00:00 23.4 9 Sudeste 22 Sudeste 0 -- -- 39
2020-09-13 22:00:00 24.2 9 Sudeste 13 Sudeste 0 -- -- 38
2020-09-13 21:00:00 26.1 3 Sudeste 18 Sur 0 -- -- 34
2020-09-13 20:00:00 29.3 13 Sur 32 Sur 0 -- -- 28
2020-09-13 19:00:00 30.5 19 Sur 32 Sudoeste 0 -- -- 27
2020-09-13 18:00:00 30.6 18 Sur 31 Sur 0 -- -- 26
2020-09-13 17:00:00 29.8 15 Sur 30 Sur 0 -- -- 26
2020-09-13 16:00:00 30.3 16 Sur 37 Sur 0 -- -- 24
2020-09-13 15:00:00 31 21 Sur 35 Sudoeste 0 -- -- 24
2020-09-13 14:00:00 31.2 17 Sur 31 Sur 0 -- -- 25
2020-09-13 13:00:00 29.4 14 Sur 32 Sur 0 -- -- 27
2020-09-13 12:00:00 28.1 13 Sur 22 Sur 0 -- -- 30
2020-09-13 11:00:00 24.4 6 Este 16 Este 0 -- -- 32
2020-09-13 10:00:00 21 13 Este 21 Este 0 -- -- 34
2020-09-13 09:00:00 17.5 12 Sudeste 19 Este 0 -- -- 38
2020-09-13 08:00:00 16.2 15 Este 21 Este 0 -- -- 39
2020-09-13 07:00:00 17.2 5 Este 17 Este 0 -- -- 37
2020-09-13 06:00:00 18.1 11 Este 15 Este 0 -- -- 35
2020-09-13 05:00:00 19.1 11 Sudeste 20 Este 0 -- -- 33
2020-09-13 04:00:00 19.1 13 Este 19 Este 0 -- -- 34
2020-09-13 03:00:00 20.1 13 Este 20 Este 0 -- -- 33
2020-09-13 02:00:00 20.2 9 Este 15 Este 0 -- -- 37
2020-09-13 01:00:00 20.9 9 Este 14 Este 0 -- -- 37
2020-09-13 00:00:00 20.9 12 Este 17 Este 0 -- -- 39
2020-09-12 23:00:00 19.8 8 Este 10 Este 0 -- -- 43
2020-09-12 22:00:00 21.3 3 Este 8 Sudeste 0 -- -- 40
2020-09-12 21:00:00 25.2 5 Sudeste 19 Sudeste 0 -- -- 32
2020-09-12 20:00:00 29.1 6 Este 21 Este 0 -- -- 25
2020-09-12 19:00:00 31.2 9 Nordeste 20 Nordeste 0 -- -- 22
2020-09-12 18:00:00 31.3 9 Nordeste 17 Este 0 -- -- 23
2020-09-12 17:00:00 32.1 4 Sudoeste 20 Sudeste 0 -- -- 22
2020-09-12 16:00:00 31.5 10 Sudeste 25 Nordeste 0 -- -- 22
2020-09-12 15:00:00 30.9 8 Nordeste 28 Este 0 -- -- 24
2020-09-12 14:00:00 30.3 15 Este 34 Este 0 -- -- 24
2020-09-12 13:00:00 29 19 Este 30 Este 0 -- -- 25
2020-09-12 12:00:00 26.2 12 Este 23 Este 0 -- -- 30
2020-09-12 11:00:00 22.6 14 Este 28 Este 0 -- -- 36
2020-09-12 10:00:00 19.7 18 Este 29 Este 0 -- -- 41
2020-09-12 09:00:00 17.1 15 Este 22 Este 0 -- -- 46
2020-09-12 08:00:00 16.9 12 Este 20 Este 0 -- -- 46
2020-09-12 07:00:00 16.5 12 Este 16 Sudeste 0 -- -- 48
2020-09-12 06:00:00 16.5 12 Este 18 Este 0 -- -- 49
2020-09-12 05:00:00 18.2 14 Este 20 Este 0 -- -- 45
2020-09-12 04:00:00 16.3 2 Este 12 Este 0 -- -- 50
2020-09-12 03:00:00 18.3 11 Este 14 Sudeste 0 -- -- 45
2020-09-12 02:00:00 18.6 11 Sudeste 14 Sudeste 0 -- -- 44
2020-09-12 01:00:00 19 11 Este 13 Este 0 -- -- 44
2020-09-12 00:00:00 19.1 9 Este 12 Este 0 -- -- 44
2020-09-11 23:00:00 21.3 7 Este 14 Este 0 -- -- 39
2020-09-11 22:00:00 23.7 8 Este 13 Este 0 -- -- 35
2020-09-11 21:00:00 25.3 6 Nordeste 13 Norte 0 -- -- 31
2020-09-11 20:00:00 27.6 3 Norte 10 Nordeste 0 -- -- 28
2020-09-11 19:00:00 29.7 6 Norte 17 Norte 0 -- -- 24
2020-09-11 18:00:00 29.7 4 Este 28 Nordeste 0 -- -- 25
2020-09-11 17:00:00 30.1 6 Norte 17 Oeste 0 -- -- 24
2020-09-11 16:00:00 30.1 5 Sur 17 Nordeste 0 -- -- 24
2020-09-11 15:00:00 29.1 4 Nordeste 21 Noroeste 0 -- -- 25
2020-09-11 14:00:00 28.8 5 Sudoeste 19 Sudeste 0 -- -- 26
2020-09-11 13:00:00 27.9 10 Sudeste 17 Este 0 -- -- 28
2020-09-11 12:00:00 25 8 Este 22 Este 0 -- -- 36
2020-09-11 11:00:00 21.5 13 Este 29 Este 0 -- -- 42
2020-09-11 10:00:00 18.2 19 Este 30 Este 0 -- -- 49
2020-09-11 09:00:00 15.8 16 Este 23 Este 0 -- -- 53
2020-09-11 08:00:00 13.4 14 Este 21 Este 0 -- -- 57
2020-09-11 07:00:00 12.3 0 Calma 7 Nordeste 0 -- -- 60
2020-09-11 06:00:00 11.6 2 Este 7 Nordeste 0 -- -- 63
2020-09-11 05:00:00 13.5 2 Este 9 Norte 0 -- -- 55
2020-09-11 04:00:00 14.7 3 Norte 11 Sudeste 0 -- -- 53
2020-09-11 03:00:00 16.7 8 Sudeste 11 Sudeste 0 -- -- 47
2020-09-11 02:00:00 17.1 8 Sudeste 10 Este 0 -- -- 46
2020-09-11 01:00:00 18.6 7 Sudeste 16 Sudeste 0 -- -- 42
2020-09-11 00:00:00 18.9 10 Este 14 Sudeste 0 -- -- 41
2020-09-10 23:00:00 18.5 9 Este 10 Este 0 -- -- 44
2020-09-10 22:00:00 21.2 8 Este 10 Este 0 -- -- 37
2020-09-10 21:00:00 24.2 7 Nordeste 13 Nordeste 0 -- -- 34
2020-09-10 20:00:00 27.8 8 Norte 14 Norte 0 -- -- 27
2020-09-10 19:00:00 29.2 5 Norte 22 Norte 0 -- -- 25
2020-09-10 18:00:00 29.5 8 Norte 20 Nordeste 0 -- -- 25
2020-09-10 17:00:00 29.3 9 Nordeste 19 Nordeste 0 -- -- 26
2020-09-10 16:00:00 29.1 6 Norte 21 Norte 0 -- -- 26
2020-09-10 15:00:00 28.2 12 Nordeste 19 Nordeste 0 -- -- 27
2020-09-10 14:00:00 27.2 5 Nordeste 21 Este 0 -- -- 29
2020-09-10 13:00:00 26 6 Este 16 Este 0 -- -- 33
2020-09-10 12:00:00 23.2 9 Nordeste 18 Este 0 -- -- 44
2020-09-10 11:00:00 20.1 11 Este 23 Este 0 -- -- 50
2020-09-10 10:00:00 17.5 15 Este 22 Este 0 -- -- 55
2020-09-10 09:00:00 13.9 5 Este 13 Este 0 -- -- 60
2020-09-10 08:00:00 11.4 3 Este 6 Este 0 -- -- 62
2020-09-10 07:00:00 12.5 5 Este 10 Este 0 -- -- 56
2020-09-10 06:00:00 11.5 4 Este 11 Este 0 -- -- 55
2020-09-10 05:00:00 13.2 8 Este 11 Este 0 -- -- 50
2020-09-10 04:00:00 13.4 3 Este 19 Este 0 -- -- 49
2020-09-10 03:00:00 12.4 0 Calma 4 Este 0 -- -- 52
2020-09-10 02:00:00 14.7 0 Calma 12 Sudoeste 0 -- -- 45
2020-09-10 01:00:00 15.5 10 Este 12 Este 0 -- -- 43
2020-09-10 00:00:00 16.3 8 Este 19 Este 0 -- -- 42
2020-09-09 23:00:00 15.6 0 Calma 7 Este 0 -- -- 45
2020-09-09 22:00:00 16.9 3 Este 4 Este 0 -- -- 42
2020-09-09 21:00:00 21.3 0 Calma 12 Noroeste 0 -- -- 33
2020-09-09 20:00:00 27.7 6 Noroeste 12 Oeste 0 -- -- 24
2020-09-09 19:00:00 27.8 7 Nordeste 15 Norte 0 -- -- 23
2020-09-09 18:00:00 28.6 5 Norte 15 Noroeste 0 -- -- 22
2020-09-09 17:00:00 28.2 4 Sur 15 Noroeste 0 -- -- 23
2020-09-09 16:00:00 27.7 6 Norte 21 Noroeste 0 -- -- 25
2020-09-09 15:00:00 27 8 Noroeste 19 Nordeste 0 -- -- 25
2020-09-09 14:00:00 26.1 8 Oeste 18 Norte 0 -- -- 28
2020-09-09 13:00:00 25.2 6 Noroeste 17 Oeste 0 -- -- 30
2020-09-09 12:00:00 23.6 7 Noroeste 13 Norte 0 -- -- 32
2020-09-09 11:00:00 21.4 3 Norte 9 Este 0 -- -- 35
2020-09-09 10:00:00 17 3 Este 10 Sudeste 0 -- -- 43
2020-09-09 09:00:00 11.8 8 Este 13 Este 0 -- -- 58
2020-09-09 08:00:00 9.2 3 Este 10 Este 0 -- -- 66
2020-09-09 07:00:00 9.7 0 Calma 5 Sudeste 0 -- -- 68
2020-09-09 06:00:00 10.2 2 Sudeste 9 Este 0 -- -- 60
2020-09-09 05:00:00 10.5 5 Sudeste 10 Este 0 -- -- 56
2020-09-09 04:00:00 11.3 5 Este 8 Este 0 -- -- 56
2020-09-09 03:00:00 12.7 2 Sur 6 Sudeste 0 -- -- 59
2020-09-09 02:00:00 14.3 5 Sur 11 Sur 0 -- -- 49
2020-09-09 01:00:00 15.4 7 Sur 12 Sur 0 -- -- 35
2020-09-09 00:00:00 14.9 8 Sur 12 Sur 0 -- -- 37
2020-09-08 23:00:00 14.7 6 Este 9 Este 0 -- -- 41
2020-09-08 22:00:00 16.5 7 Este 10 Nordeste 0 -- -- 37
2020-09-08 21:00:00 20.8 6 Nordeste 11 Nordeste 0 -- -- 31
2020-09-08 20:00:00 25.4 3 Nordeste 12 Este 0 -- -- 24
2020-09-08 19:00:00 26.1 9 Este 18 Este 0 -- -- 22
2020-09-08 18:00:00 25.8 5 Este 22 Este 0 -- -- 23
2020-09-08 17:00:00 25.1 9 Nordeste 24 Este 0 -- -- 23
2020-09-08 16:00:00 24.4 9 Nordeste 23 Este 0 -- -- 27
2020-09-08 15:00:00 23 11 Nordeste 23 Este 0 -- -- 30
2020-09-08 14:00:00 21.3 13 Nordeste 35 Este 0 -- -- 34
2020-09-08 13:00:00 19.9 14 Este 24 Este 0 -- -- 38
2020-09-08 12:00:00 17.5 14 Nordeste 24 Nordeste 0 -- -- 46
2020-09-08 11:00:00 14.7 17 Este 29 Este 0 -- -- 55
2020-09-08 10:00:00 12.1 17 Este 32 Nordeste 0 -- -- 67
2020-09-08 09:00:00 9.9 9 Nordeste 17 Nordeste 0 -- -- 75
2020-09-08 08:00:00 8.8 11 Nordeste 19 Nordeste 0 -- -- 77
2020-09-08 07:00:00 9.2 7 Nordeste 21 Nordeste 0 -- -- 71
2020-09-08 06:00:00 10.6 7 Nordeste 26 Nordeste 0 -- -- 66
2020-09-08 05:00:00 10.9 12 Este 23 Nordeste 0 -- -- 65
2020-09-08 04:00:00 12.3 13 Este 24 Nordeste 0 -- -- 59
2020-09-08 03:00:00 13.4 16 Nordeste 31 Este 0 -- -- 57
2020-09-08 02:00:00 14.3 12 Este 30 Este 0 -- -- 55
2020-09-08 01:00:00 15.7 9 Este 24 Este 0 -- -- 52
2020-09-08 00:00:00 16.9 12 Este 26 Este 0 -- -- 49
2020-09-07 23:00:00 17.6 13 Nordeste 24 Este 0 -- -- 46
2020-09-07 22:00:00 19.2 13 Nordeste 26 Nordeste 0 -- -- 43
2020-09-07 21:00:00 21 11 Nordeste 31 Este 0 -- -- 35
2020-09-07 20:00:00 23.1 19 Nordeste 32 Este 0 -- -- 30
2020-09-07 19:00:00 23.9 21 Nordeste 35 Este 0 -- -- 30
2020-09-07 18:00:00 24.6 19 Nordeste 36 Nordeste 0 -- -- 30
2020-09-07 17:00:00 24.4 21 Este 39 Este 0 -- -- 31
2020-09-07 16:00:00 23.7 21 Este 38 Nordeste 0 -- -- 33
2020-09-07 15:00:00 22.7 23 Nordeste 37 Este 0 -- -- 36
2020-09-07 14:00:00 21.5 22 Nordeste 39 Nordeste 0 -- -- 38
2020-09-07 13:00:00 20.1 22 Nordeste 41 Este 0 -- -- 44
2020-09-07 12:00:00 18.8 21 Este 45 Este 0 -- -- 50
2020-09-07 11:00:00 16.8 26 Este 46 Este 0 -- -- 56
2020-09-07 10:00:00 14.9 26 Este 49 Este 0 -- -- 62
2020-09-07 09:00:00 13.4 22 Este 37 Este 0 -- -- 66
2020-09-07 08:00:00 12.2 17 Este 31 Este 0 -- -- 70
2020-09-07 07:00:00 12.4 17 Este 29 Este 0 -- -- 70
2020-09-07 06:00:00 13 19 Este 30 Este 0 -- -- 68
2020-09-07 05:00:00 13.6 16 Este 31 Este 0 -- -- 64
2020-09-07 04:00:00 14.6 20 Este 32 Este 0 -- -- 59
2020-09-07 03:00:00 15.6 14 Este 39 Este 0 -- -- 55
2020-09-07 02:00:00 17.1 18 Este 36 Este 0 -- -- 52
2020-09-07 01:00:00 19.6 16 Este 31 Este 0 -- -- 48
2020-09-07 00:00:00 21.2 13 Este 20 Este 0 -- -- 49
2020-09-06 23:00:00 22.8 9 Este 14 Nordeste 0 -- -- 45
2020-09-06 22:00:00 22.5 8 Nordeste 13 Este 0 -- -- 45
2020-09-06 21:00:00 25.1 0 Calma 15 Noroeste 0 -- -- 40
2020-09-06 20:00:00 29.6 9 Noroeste 21 Norte 0 -- -- 30
2020-09-06 19:00:00 30.2 10 Norte 19 Nordeste 0 -- -- 29
2020-09-06 18:00:00 30.7 10 Noroeste 19 Nordeste 0 -- -- 30
2020-09-06 17:00:00 30 9 Nordeste 18 Nordeste 0 -- -- 32
2020-09-06 16:00:00 29.2 6 Norte 19 Nordeste 0 -- -- 35
2020-09-06 15:00:00 27.9 8 Norte 20 Nordeste 0 -- -- 38
2020-09-06 14:00:00 25.8 8 Nordeste 22 Este 0 -- -- 43
2020-09-06 13:00:00 23.6 8 Nordeste 23 Nordeste 0 -- -- 50
2020-09-06 12:00:00 21.2 13 Nordeste 24 Nordeste 0 -- -- 56
2020-09-06 11:00:00 18.7 13 Nordeste 25 Nordeste 0 -- -- 64
2020-09-06 10:00:00 16.6 14 Nordeste 24 Este 0 -- -- 72
2020-09-06 09:00:00 14.7 10 Este 17 Este 0 -- -- 80
2020-09-06 08:00:00 13.8 9 Nordeste 17 Nordeste 0 -- -- 83
2020-09-06 07:00:00 14.3 11 Nordeste 22 Este 0 -- -- 82
2020-09-06 06:00:00 14.8 13 Nordeste 27 Nordeste 0 -- -- 80
2020-09-06 05:00:00 15.3 14 Nordeste 25 Nordeste 0 -- -- 78
2020-09-06 04:00:00 16.1 14 Nordeste 25 Nordeste 0 -- -- 74
2020-09-06 03:00:00 17.3 10 Nordeste 26 Nordeste 0 -- -- 71
2020-09-06 02:00:00 20.3 11 Nordeste 24 Nordeste 0 -- -- 57
2020-09-06 01:00:00 21.9 6 Norte 15 Este 0 -- -- 47
2020-09-06 00:00:00 23.4 9 Este 26 Nordeste 0 -- -- 43
2020-09-05 23:00:00 21.8 3 Nordeste 8 Norte 0 -- -- 40
2020-09-05 22:00:00 23.6 4 Norte 11 Nordeste 0 -- -- 36
2020-09-05 21:00:00 26.2 6 Nordeste 10 Norte 0 -- -- 35
2020-09-05 20:00:00 30.5 8 Norte 21 Norte 0 -- -- 25
2020-09-05 19:00:00 31.9 8 Norte 16 Este 0 -- -- 24
2020-09-05 18:00:00 32.1 5 Sudeste 21 Noroeste 0 -- -- 23
2020-09-05 17:00:00 32.4 6 Noroeste 22 Norte 0 -- -- 24
2020-09-05 16:00:00 31.6 9 Norte 24 Nordeste 0 -- -- 24
2020-09-05 15:00:00 31.2 7 Noroeste 18 Noroeste 0 -- -- 25
2020-09-05 14:00:00 30.3 10 Norte 23 Nordeste 0 -- -- 28
2020-09-05 13:00:00 28.8 7 Nordeste 18 Nordeste 0 -- -- 31
2020-09-05 12:00:00 26.5 6 Nordeste 14 Nordeste 0 -- -- 36
2020-09-05 11:00:00 24.1 4 Nordeste 13 Este 0 -- -- 41
2020-09-05 10:00:00 21.7 8 Nordeste 14 Nordeste 0 -- -- 44
2020-09-05 09:00:00 15.9 4 Este 9 Este 0 -- -- 63
2020-09-05 08:00:00 13.1 3 Sudeste 6 Sur 0 -- -- 67
2020-09-05 07:00:00 13.6 4 Sudeste 8 Sur 0 -- -- 66
2020-09-05 06:00:00 14.1 3 Sudeste 8 Sur 0 -- -- 64
2020-09-05 05:00:00 13.8 4 Sur 6 Este 0 -- -- 65
2020-09-05 04:00:00 15.4 2 Sur 4 Sudoeste 0 -- -- 59
2020-09-05 03:00:00 15.5 2 Sudoeste 4 Sudoeste 0 -- -- 59
2020-09-05 02:00:00 16.5 3 Sur 4 Sur 0 -- -- 55
2020-09-05 01:00:00 16.9 0 Calma 4 Oeste 0 -- -- 56
2020-09-05 00:00:00 19.7 0 Calma 12 Oeste 0 -- -- 50
2020-09-04 23:00:00 23.5 6 Noroeste 20 Oeste 0 -- -- 40
2020-09-04 22:00:00 24.9 10 Oeste 16 Oeste 0 -- -- 35
2020-09-04 21:00:00 26.4 2 Noroeste 13 Oeste 0 -- -- 32
2020-09-04 20:00:00 31.6 8 Noroeste 19 Oeste 0 -- -- 22
2020-09-04 19:00:00 32.5 13 Oeste 26 Sudoeste 0 -- -- 21
2020-09-04 18:00:00 32.6 14 Noroeste 25 Sudoeste 0 -- -- 21
2020-09-04 17:00:00 32.9 9 Sudeste 26 Sur 0 -- -- 21
2020-09-04 16:00:00 32.4 8 Sur 24 Sur 0 -- -- 21
2020-09-04 15:00:00 31.3 5 Sur 26 Sur 0 -- -- 22
2020-09-04 14:00:00 31.1 12 Oeste 26 Sudoeste 0 -- -- 24
2020-09-04 13:00:00 30.3 14 Sur 28 Sur 0 -- -- 26
2020-09-04 12:00:00 27.7 11 Sur 21 Sudoeste 0 -- -- 29
2020-09-04 11:00:00 25.6 9 Sudoeste 16 Sudoeste 0 -- -- 30
2020-09-04 10:00:00 21.8 5 Este 8 Este 0 -- -- 38
2020-09-04 09:00:00 15.4 3 Este 7 Sudeste 0 -- -- 55
2020-09-04 08:00:00 13.3 2 Este 8 Sur 0 -- -- 55
2020-09-04 07:00:00 14.6 3 Sudeste 10 Sur 0 -- -- 50
2020-09-04 06:00:00 13.3 3 Sur 12 Sur 0 -- -- 55
2020-09-04 05:00:00 15.1 6 Sudeste 9 Sudeste 0 -- -- 49
2020-09-04 04:00:00 16.6 5 Sudeste 10 Sudeste 0 -- -- 46
2020-09-04 03:00:00 16.9 7 Sur 12 Sur 0 -- -- 44
2020-09-04 02:00:00 17.7 6 Sudeste 12 Este 0 -- -- 41
2020-09-04 01:00:00 18.3 10 Este 12 Este 0 -- -- 41
2020-09-04 00:00:00 17.9 5 Este 10 Este 0 -- -- 43
2020-09-03 23:00:00 20.5 4 Sudeste 15 Sur 0 -- -- 37
2020-09-03 22:00:00 20.5 2 Nordeste 5 Norte 0 -- -- 39
2020-09-03 21:00:00 25 2 Nordeste 9 Nordeste 0 -- -- 33
2020-09-03 20:00:00 30.9 4 Noroeste 15 Noroeste 0 -- -- 22
2020-09-03 19:00:00 30.6 6 Norte 15 Nordeste 0 -- -- 21
2020-09-03 18:00:00 31.4 3 Norte 19 Noroeste 0 -- -- 21
2020-09-03 17:00:00 30.3 9 Nordeste 18 Oeste 0 -- -- 22
2020-09-03 16:00:00 30.5 8 Sur 18 Sudeste 0 -- -- 22
2020-09-03 15:00:00 29.4 4 Nordeste 17 Norte 0 -- -- 24
2020-09-03 14:00:00 28.5 9 Norte 17 Sudeste 0 -- -- 24
2020-09-03 13:00:00 27.9 5 Sur 22 Nordeste 0 -- -- 26
2020-09-03 12:00:00 26.4 11 Este 21 Sudeste 0 -- -- 29
2020-09-03 11:00:00 24.2 12 Sudeste 20 Este 0 -- -- 32
2020-09-03 10:00:00 19.9 10 Sudeste 15 Este 0 -- -- 39
2020-09-03 09:00:00 15.8 10 Este 14 Este 0 -- -- 48
2020-09-03 08:00:00 14 12 Este 16 Este 0 -- -- 52
2020-09-03 07:00:00 14.4 13 Este 15 Este 0 -- -- 50
2020-09-03 06:00:00 14.9 11 Este 17 Este 0 -- -- 49
2020-09-03 05:00:00 15 12 Este 16 Este 0 -- -- 48
2020-09-03 04:00:00 15.8 11 Este 16 Este 0 -- -- 46
2020-09-03 03:00:00 15.1 10 Este 14 Sudeste 0 -- -- 48
2020-09-03 02:00:00 16.2 11 Este 14 Este 0 -- -- 45
2020-09-03 01:00:00 17 10 Este 14 Este 0 -- -- 44
2020-09-03 00:00:00 18 10 Este 18 Este 0 -- -- 42
2020-09-02 23:00:00 19.3 8 Este 12 Este 0 -- -- 38
2020-09-02 22:00:00 21.6 8 Este 12 Nordeste 0 -- -- 35
2020-09-02 21:00:00 24.1 5 Nordeste 13 Norte 0 -- -- 33
2020-09-02 20:00:00 27.1 6 Norte 17 Norte 0 -- -- 26
2020-09-02 19:00:00 27.7 6 Nordeste 21 Nordeste 0 -- -- 24
2020-09-02 18:00:00 28 11 Norte 24 Nordeste 0 -- -- 24
2020-09-02 17:00:00 27.6 8 Este 20 Nordeste 0 -- -- 25
2020-09-02 16:00:00 27.1 10 Nordeste 25 Este 0 -- -- 27
2020-09-02 15:00:00 26.4 8 Nordeste 25 Este 0 -- -- 29
2020-09-02 14:00:00 25.1 13 Nordeste 27 Este 0 -- -- 33
2020-09-02 13:00:00 23.3 14 Este 26 Este 0 -- -- 37
2020-09-02 12:00:00 20.7 14 Nordeste 23 Este 0 -- -- 44
2020-09-02 11:00:00 18.3 10 Nordeste 22 Nordeste 0 -- -- 53
2020-09-02 10:00:00 14.8 10 Nordeste 17 Nordeste 0 -- -- 68
2020-09-02 09:00:00 11.9 4 Norte 14 Nordeste 0 -- -- 82
2020-09-02 08:00:00 10.4 4 Nordeste 14 Nordeste 0 -- -- 85
2020-09-02 07:00:00 10.9 5 Nordeste 13 Nordeste 0 -- -- 82
2020-09-02 06:00:00 12.4 8 Nordeste 21 Este 0 -- -- 77
2020-09-02 05:00:00 13.1 14 Nordeste 24 Nordeste 0 -- -- 74
2020-09-02 04:00:00 14.1 13 Nordeste 23 Este 0 -- -- 69
2020-09-02 03:00:00 14.8 12 Nordeste 22 Nordeste 0 -- -- 60
2020-09-02 02:00:00 14.2 4 Norte 8 Noroeste 0 -- -- 68
2020-09-02 01:00:00 15.9 6 Noroeste 13 Noroeste 0 -- -- 63
2020-09-02 00:00:00 16.4 6 Oeste 14 Oeste 0 -- -- 56
2020-09-01 23:00:00 15.8 4 Noroeste 7 Noroeste 0 -- -- 48
2020-09-01 22:00:00 16.4 0 Calma 4 Noroeste 0 -- -- 46
2020-09-01 21:00:00 22.8 3 Norte 15 Noroeste 0 -- -- 33
2020-09-01 20:00:00 25.6 9 Norte 16 Noroeste 0 -- -- 28
2020-09-01 19:00:00 26.4 9 Noroeste 20 Noroeste 0 -- -- 26
2020-09-01 18:00:00 26.3 9 Noroeste 22 Noroeste 0 -- -- 29
2020-09-01 17:00:00 26 7 Noroeste 27 Noroeste 0 -- -- 28
2020-09-01 16:00:00 26 9 Noroeste 21 Oeste 0 -- -- 22
2020-09-01 15:00:00 25.3 8 Norte 21 Noroeste 0 -- -- 19
2020-09-01 14:00:00 23.3 7 Noroeste 20 Noroeste 0 -- -- 27
2020-09-01 13:00:00 22.4 7 Noroeste 20 Noroeste 0 -- -- 32
2020-09-01 12:00:00 20.8 6 Norte 11 Norte 0 -- -- 37
2020-09-01 11:00:00 19.1 2 Noroeste 5 Oeste 0 -- -- 42
2020-09-01 10:00:00 16.5 2 Sur 5 Sur 0 -- -- 47
2020-09-01 09:00:00 12.9 2 Sudeste 4 Sudeste 0 -- -- 65
2020-09-01 08:00:00 10.5 0 Calma 9 Este 0 -- -- 65
2020-09-01 07:00:00 11.7 7 Este 10 Este 0 -- -- 60
2020-09-01 06:00:00 12.5 3 Noroeste 8 Sur 0 -- -- 60
2020-09-01 05:00:00 13.5 3 Sudeste 6 Oeste 0 -- -- 56
2020-09-01 04:00:00 14.2 0 Calma 8 Sudeste 0 -- -- 50
2020-09-01 03:00:00 13.9 0 Calma 6 Sur 0 -- -- 49
2020-09-01 02:00:00 14.5 4 Sur 8 Sur 0 -- -- 42
2020-09-01 01:00:00 13.5 3 Sur 8 Sudeste 0 -- -- 45
2020-09-01 00:00:00 13.4 2 Sudeste 6 Este 0 -- -- 47
2020-08-31 23:00:00 14.2 2 Sudeste 6 Nordeste 0 -- -- 43
2020-08-31 22:00:00 15.4 3 Nordeste 5 Nordeste 0 -- -- 40
2020-08-31 21:00:00 21 4 Norte 13 Noroeste 0 -- -- 31
2020-08-31 20:00:00 23.5 9 Norte 18 Noroeste 0 -- -- 27
2020-08-31 19:00:00 24.7 11 Noroeste 23 Noroeste 0 -- -- 23
2020-08-31 18:00:00 25.2 12 Noroeste 26 Noroeste 0 -- -- 22
2020-08-31 17:00:00 24.7 14 Noroeste 27 Oeste 0 -- -- 24
2020-08-31 16:00:00 24.6 13 Oeste 26 Oeste 0 -- -- 24
2020-08-31 15:00:00 23.1 6 Oeste 28 Norte 0 -- -- 29
2020-08-31 14:00:00 21.4 8 Sudoeste 18 Sudoeste 0 -- -- 32
2020-08-31 13:00:00 20.1 9 Sudoeste 17 Sudoeste 0 -- -- 32
2020-08-31 12:00:00 19.3 6 Sudoeste 14 Oeste 0 -- -- 35
2020-08-31 11:00:00 16.6 2 Este 13 Este 0 -- -- 45
2020-08-31 10:00:00 12.8 11 Este 19 Este 0 -- -- 57
2020-08-31 09:00:00 9.4 10 Este 17 Este 0 -- -- 68
2020-08-31 08:00:00 7.6 5 Nordeste 13 Este 0 -- -- 71
2020-08-31 07:00:00 8.1 4 Nordeste 15 Este 0 -- -- 65
2020-08-31 06:00:00 8.5 10 Este 15 Sudeste 0 -- -- 64
2020-08-31 05:00:00 9.2 12 Este 17 Este 0 -- -- 60
2020-08-31 04:00:00 9.3 9 Este 17 Este 0 -- -- 59
2020-08-31 03:00:00 9.6 10 Este 14 Este 0 -- -- 58
2020-08-31 02:00:00 9.8 8 Sudeste 10 Sudeste 0 -- -- 57
2020-08-31 01:00:00 10.7 8 Este 12 Este 0 -- -- 54
2020-08-31 00:00:00 10.7 7 Sudeste 9 Sudeste 0 -- -- 55
2020-08-30 23:00:00 13.2 7 Este 11 Este 0 -- -- 47
2020-08-30 22:00:00 15.5 8 Este 14 Nordeste 0 -- -- 41
2020-08-30 21:00:00 17.9 7 Este 19 Nordeste 0 -- -- 38
2020-08-30 20:00:00 19.9 9 Nordeste 23 Nordeste 0 -- -- 33
2020-08-30 19:00:00 20.4 16 Nordeste 28 Nordeste 0 -- -- 32
2020-08-30 18:00:00 20.5 10 Nordeste 23 Nordeste 0 -- -- 31
2020-08-30 17:00:00 20.5 10 Nordeste 25 Norte 0 -- -- 33
2020-08-30 16:00:00 19.9 13 Este 32 Este 0 -- -- 34
2020-08-30 15:00:00 19.4 7 Este 24 Norte 0 -- -- 37
2020-08-30 14:00:00 18.5 13 Nordeste 27 Nordeste 0 -- -- 40
2020-08-30 13:00:00 17.8 17 Este 31 Este 0 -- -- 42
2020-08-30 12:00:00 16.1 19 Este 32 Este 0 -- -- 49
2020-08-30 11:00:00 14.7 20 Nordeste 32 Nordeste 0 -- -- 54
2020-08-30 10:00:00 13 13 Este 24 Este 0 -- -- 62
2020-08-30 09:00:00 10.1 10 Este 17 Este 0 -- -- 73
2020-08-30 08:00:00 8.2 9 Este 17 Este 0 -- -- 80
2020-08-30 07:00:00 8.6 10 Este 19 Este 0 -- -- 79
2020-08-30 06:00:00 8.9 8 Este 15 Nordeste 0 -- -- 77
2020-08-30 05:00:00 9.3 9 Nordeste 14 Nordeste 0 -- -- 75
2020-08-30 04:00:00 10.1 9 Nordeste 14 Este 0 -- -- 72
2020-08-30 03:00:00 10.8 6 Nordeste 12 Nordeste 0 -- -- 69
2020-08-30 02:00:00 11.7 5 Nordeste 17 Nordeste 0 -- -- 65
2020-08-30 01:00:00 12.4 4 Este 12 Norte 0 -- -- 61
2020-08-30 00:00:00 14.6 5 Norte 19 Norte 0 -- -- 53
2020-08-29 23:00:00 15.8 11 Norte 23 Norte 0 -- -- 49
2020-08-29 22:00:00 15.9 10 Norte 29 Noroeste 0 -- -- 47
2020-08-29 21:00:00 17.9 21 Noroeste 32 Noroeste 0 -- -- 44
2020-08-29 20:00:00 20.4 18 Noroeste 31 Norte 0 -- -- 39
2020-08-29 19:00:00 18.9 5 Este 21 Este 0 -- -- 44
2020-08-29 18:00:00 19.8 10 Nordeste 26 Noroeste 0 -- -- 43
2020-08-29 17:00:00 21.4 22 Noroeste 39 Noroeste 0 -- -- 39
2020-08-29 16:00:00 20.9 16 Noroeste 34 Norte 0 -- -- 40
2020-08-29 15:00:00 19.8 14 Norte 31 Noroeste 0 -- -- 42
2020-08-29 14:00:00 19.1 14 Norte 36 Norte 0 -- -- 43
2020-08-29 13:00:00 17.6 15 Norte 32 Noroeste 0 -- -- 48
2020-08-29 12:00:00 16.4 13 Norte 31 Noroeste 0 -- -- 54
2020-08-29 11:00:00 14.6 19 Noroeste 33 Noroeste 0 -- -- 64
2020-08-29 10:00:00 12.6 13 Noroeste 23 Noroeste 0 -- -- 74
2020-08-29 09:00:00 10.2 11 Noroeste 18 Noroeste 0 -- -- 85
2020-08-29 08:00:00 8 4 Norte 10 Norte 0 -- -- 87
2020-08-29 07:00:00 7.9 4 Norte 8 Norte 0 -- -- 84
2020-08-29 06:00:00 8.5 5 Norte 11 Norte 0 -- -- 83
2020-08-29 05:00:00 9 6 Norte 13 Noroeste 0 -- -- 81
2020-08-29 04:00:00 9.8 6 Norte 20 Noroeste 0 -- -- 77
2020-08-29 03:00:00 10.8 11 Noroeste 19 Noroeste 0 -- -- 73
2020-08-29 02:00:00 10.3 0 Calma 8 Noroeste 0 -- -- 74
2020-08-29 01:00:00 12.9 4 Norte 17 Norte 0 -- -- 65
2020-08-29 00:00:00 14.3 12 Noroeste 25 Norte 0 -- -- 60
2020-08-28 23:00:00 15.8 16 Noroeste 27 Noroeste 0 -- -- 51
2020-08-28 22:00:00 17.4 17 Noroeste 29 Noroeste 0 -- -- 50
2020-08-28 21:00:00 19.3 18 Noroeste 33 Noroeste 0 -- -- 43
2020-08-28 20:00:00 21.7 16 Norte 33 Norte 0 -- -- 39
2020-08-28 19:00:00 23.5 23 Noroeste 39 Noroeste 0 -- -- 35
2020-08-28 18:00:00 24.7 16 Noroeste 35 Noroeste 0 -- -- 30
2020-08-28 17:00:00 24.3 19 Noroeste 36 Norte 0 -- -- 30
2020-08-28 16:00:00 24.1 20 Noroeste 40 Noroeste 0 -- -- 33
2020-08-28 15:00:00 23.6 23 Noroeste 37 Noroeste 0 -- -- 39
2020-08-28 14:00:00 22.7 23 Noroeste 39 Noroeste 0 -- -- 37
2020-08-28 13:00:00 22.6 18 Noroeste 30 Norte 0 -- -- 46
2020-08-28 12:00:00 21 16 Noroeste 36 Noroeste 0 -- -- 50
2020-08-28 11:00:00 19.6 16 Noroeste 26 Oeste 0 -- -- 66
2020-08-28 10:00:00 16.9 11 Noroeste 18 Oeste 0 -- -- 89
2020-08-28 09:00:00 16.5 5 Noroeste 14 Oeste 0 -- -- 91
2020-08-28 08:00:00 15.3 6 Noroeste 13 Oeste 0 -- -- 91
2020-08-28 07:00:00 15.9 6 Oeste 14 Oeste 0 -- -- 90
2020-08-28 06:00:00 16.1 4 Oeste 14 Oeste 0 -- -- 89
2020-08-28 05:00:00 16.1 9 Oeste 14 Oeste 0 -- -- 90
2020-08-28 04:00:00 16.6 9 Oeste 15 Oeste 0 -- -- 89
2020-08-28 03:00:00 17 9 Noroeste 15 Noroeste 0 -- -- 88
2020-08-28 02:00:00 18.1 8 Noroeste 17 Oeste 0 -- -- 83
2020-08-28 01:00:00 19.1 10 Noroeste 20 Oeste 0 -- -- 80
2020-08-28 00:00:00 20.3 12 Noroeste 22 Noroeste 0 -- -- 75
2020-08-27 23:00:00 22.2 14 Noroeste 22 Noroeste 0 -- -- 68
2020-08-27 22:00:00 23.7 12 Oeste 22 Oeste 0 -- -- 61
2020-08-27 21:00:00 26.3 14 Noroeste 27 Noroeste 0 -- -- 52
2020-08-27 20:00:00 29.6 17 Noroeste 30 Noroeste 0 -- -- 42
2020-08-27 19:00:00 31.3 14 Noroeste 32 Noroeste 0 -- -- 28
2020-08-27 18:00:00 31.6 15 Noroeste 26 Noroeste 0 -- -- 28
2020-08-27 17:00:00 31.6 13 Noroeste 25 Oeste 0 -- -- 28
2020-08-27 16:00:00 30.8 8 Oeste 31 Oeste 0 -- -- 33
2020-08-27 15:00:00 29.8 7 Norte 21 Oeste 0 -- -- 38
2020-08-27 14:00:00 28.7 11 Noroeste 21 Norte 0 -- -- 41
2020-08-27 13:00:00 27.5 8 Noroeste 16 Oeste 0 -- -- 44
2020-08-27 12:00:00 25.7 8 Norte 17 Noroeste 0 -- -- 53
2020-08-27 11:00:00 23.2 10 Norte 21 Noroeste 0 -- -- 67
2020-08-27 10:00:00 20.9 7 Noroeste 11 Noroeste 0 -- -- 79
2020-08-27 09:00:00 18.3 0 Calma 2 Noroeste 0 -- -- 92
2020-08-27 08:00:00 15.5 2 Sudeste 2 Sudeste 0 -- -- 91
2020-08-27 07:00:00 16.1 0 Calma 5 Sudoeste 0 -- -- 91
2020-08-27 06:00:00 16.5 0 Calma 5 Oeste 0 -- -- 90
2020-08-27 05:00:00 16.9 0 Calma 5 Oeste 0 -- -- 87
2020-08-27 04:00:00 17.5 2 Sudoeste 4 Sudoeste 0 -- -- 83
2020-08-27 03:00:00 18.3 2 Sur 5 Sudoeste 0 -- -- 82
2020-08-27 02:00:00 20.8 0 Calma 12 Oeste 0 -- -- 71
2020-08-27 01:00:00 22.4 6 Oeste 15 Oeste 0 -- -- 65
2020-08-27 00:00:00 23.3 12 Oeste 19 Oeste 0 -- -- 60
2020-08-26 23:00:00 23.9 10 Oeste 15 Oeste 0 -- -- 56
2020-08-26 22:00:00 22.1 2 Norte 5 Noroeste 0 -- -- 44
2020-08-26 21:00:00 28 0 Calma 13 Norte 0 -- -- 35
2020-08-26 20:00:00 32.1 8 Noroeste 19 Norte 0 -- -- 26
2020-08-26 19:00:00 32.6 12 Noroeste 22 Noroeste 0 -- -- 25
2020-08-26 18:00:00 32.9 9 Oeste 23 Oeste 0 -- -- 24
2020-08-26 17:00:00 32.5 11 Noroeste 24 Noroeste 0 -- -- 27
2020-08-26 16:00:00 32 13 Noroeste 24 Noroeste 0 -- -- 30
2020-08-26 15:00:00 31 7 Norte 17 Noroeste 0 -- -- 31
2020-08-26 14:00:00 29.5 8 Norte 17 Norte 0 -- -- 36
2020-08-26 13:00:00 28.3 9 Noroeste 18 Nordeste 0 -- -- 40
2020-08-26 12:00:00 26.1 7 Nordeste 15 Nordeste 0 -- -- 47
2020-08-26 11:00:00 23.6 5 Norte 14 Norte 0 -- -- 54
2020-08-26 10:00:00 20.6 6 Nordeste 12 Nordeste 0 -- -- 63
2020-08-26 09:00:00 16.8 5 Nordeste 8 Nordeste 0 -- -- 77
2020-08-26 08:00:00 12.6 0 Calma 3 Norte 0 -- -- 90
2020-08-26 07:00:00 13.7 0 Calma 5 Este 0 -- -- 87
2020-08-26 06:00:00 13.9 2 Este 8 Este 0 -- -- 86
2020-08-26 05:00:00 14.8 5 Este 8 Este 0 -- -- 85
2020-08-26 04:00:00 15 2 Sudeste 4 Sudeste 0 -- -- 82
2020-08-26 03:00:00 15.7 0 Calma 3 Sudeste 0 -- -- 78
2020-08-26 02:00:00 16.6 0 Calma 4 Oeste 0 -- -- 72
2020-08-26 01:00:00 17.9 0 Calma 5 Noroeste 0 -- -- 67
2020-08-26 00:00:00 21.3 4 Noroeste 12 Oeste 0 -- -- 56